createdAt,value
2022-09-03T00:01:38.641Z,29.46
2022-09-03T00:03:45.534Z,29.83
2022-09-03T00:05:50.682Z,29.82
2022-09-03T00:08:03.487Z,29.76
2022-09-03T00:10:10.885Z,29.64
2022-09-03T00:12:21.869Z,29.72
2022-09-03T00:14:27.066Z,30.04
2022-09-03T00:16:33.982Z,29.77
2022-09-03T00:18:41.335Z,29.62
2022-09-03T00:20:46.692Z,30.05
2022-09-03T00:22:51.903Z,30.14
2022-09-03T00:24:56.756Z,29.66
2022-09-03T00:27:04.607Z,30.07
2022-09-03T00:29:11.219Z,30.53
2022-09-03T00:31:18.186Z,29.52
2022-09-03T00:33:24.465Z,29.98
2022-09-03T00:35:28.584Z,30.06
2022-09-03T00:37:30.148Z,29.85
2022-09-03T00:39:38.758Z,30.40
2022-09-03T00:41:54.846Z,30.42
2022-09-03T00:44:12.220Z,30.10
2022-09-03T00:46:20.913Z,29.93
2022-09-03T00:48:28.324Z,30.15
2022-09-03T00:50:45.092Z,30.18
2022-09-03T00:52:56.830Z,30.42
2022-09-03T00:55:05.482Z,30.45
2022-09-03T00:57:21.738Z,30.57
2022-09-03T00:59:32.307Z,30.90
2022-09-03T01:01:40.199Z,30.92
2022-09-03T01:03:50.904Z,30.97
2022-09-03T01:06:06.335Z,30.92
2022-09-03T01:08:25.847Z,30.68
2022-09-03T01:10:35.639Z,30.37
2022-09-03T01:12:49.323Z,30.70
2022-09-03T01:15:06.573Z,30.96
2022-09-03T01:17:18.077Z,31.14
2022-09-03T01:19:48.183Z,30.60
2022-09-03T01:22:08.440Z,30.94
2022-09-03T01:24:36.250Z,31.28
2022-09-03T01:26:55.723Z,31.87
2022-09-03T01:29:08.318Z,32.19
2022-09-03T01:31:20.863Z,31.82
2022-09-03T01:33:30.564Z,32.15
2022-09-03T01:35:42.707Z,32.00
2022-09-03T01:37:54.716Z,31.94
2022-09-03T01:40:08.403Z,31.95
2022-09-03T01:42:22.904Z,31.64
2022-09-03T01:44:37.409Z,31.70
2022-09-03T01:46:40.583Z,31.93
2022-09-03T01:48:44.690Z,31.76
2022-09-03T01:50:51.057Z,32.01
2022-09-03T01:52:56.105Z,32.03
2022-09-03T01:55:12.804Z,31.88
2022-09-03T01:57:50.861Z,31.81
2022-09-03T01:59:59.905Z,32.43
2022-09-03T02:02:04.691Z,32.18
2022-09-03T02:04:16.624Z,32.02
2022-09-03T02:06:18.431Z,33.04
2022-09-03T02:08:19.944Z,32.23
2022-09-03T02:10:26.973Z,33.12
2022-09-03T02:12:31.273Z,32.39
2022-09-03T02:14:32.838Z,32.63
2022-09-03T02:16:35.865Z,32.54
2022-09-03T02:18:42.960Z,32.17
2022-09-03T02:20:45.577Z,32.56
2022-09-03T02:22:48.587Z,32.27
2022-09-03T02:24:50.235Z,32.27
2022-09-03T02:26:52.990Z,32.95
2022-09-03T02:28:55.689Z,32.62
2022-09-03T02:30:57.544Z,33.45
2022-09-03T02:33:01.216Z,32.69
2022-09-03T02:35:02.839Z,32.94
2022-09-03T02:37:12.308Z,32.14
2022-09-03T02:39:15.240Z,32.46
2022-09-03T02:41:16.790Z,32.23
2022-09-03T02:43:23.863Z,32.73
2022-09-03T02:45:29.265Z,33.20
2022-09-03T02:47:34.398Z,34.39
2022-09-03T02:49:37.341Z,33.77
2022-09-03T02:51:41.266Z,34.71
2022-09-03T02:53:44.239Z,35.38
2022-09-03T02:55:46.163Z,35.28
2022-09-03T02:57:47.723Z,35.25
2022-09-03T02:59:49.321Z,36.13
2022-09-03T03:01:50.958Z,35.63
2022-09-03T03:03:53.354Z,36.74
2022-09-03T03:05:59.886Z,35.51
2022-09-03T03:08:01.894Z,34.53
2022-09-03T03:10:03.710Z,36.21
2022-09-03T03:12:05.455Z,36.54
2022-09-03T03:14:07.030Z,36.14
2022-09-03T03:16:08.718Z,35.48
2022-09-03T03:18:10.535Z,37.07
2022-09-03T03:20:12.102Z,34.48
2022-09-03T03:22:14.977Z,35.61
2022-09-03T03:24:16.549Z,34.59
2022-09-03T03:26:20.896Z,35.36
2022-09-03T03:28:22.561Z,35.84
2022-09-03T03:30:24.439Z,33.93
2022-09-03T03:32:26.804Z,33.57
2022-09-03T03:34:28.364Z,33.75
2022-09-03T03:36:32.804Z,33.48
2022-09-03T03:38:38.783Z,34.75
2022-09-03T03:40:40.315Z,34.72
2022-09-03T03:42:42.246Z,33.89
2022-09-03T03:44:43.799Z,33.87
2022-09-03T03:46:45.652Z,33.38
2022-09-03T03:48:47.672Z,35.17
2022-09-03T03:50:49.233Z,34.19
2022-09-03T03:52:50.808Z,35.47
2022-09-03T03:54:53.954Z,33.16
2022-09-03T03:56:57.051Z,32.98
2022-09-03T03:58:59.326Z,34.10
2022-09-03T04:01:05.322Z,33.09
2022-09-03T04:03:06.928Z,33.08
2022-09-03T04:05:09.146Z,33.15
2022-09-03T04:07:10.995Z,33.14
2022-09-03T04:09:12.668Z,33.66
2022-09-03T04:11:17.896Z,33.36
2022-09-03T04:13:19.599Z,33.16
2022-09-03T04:15:21.169Z,33.49
2022-09-03T04:17:25.300Z,34.10
2022-09-03T04:19:27.180Z,33.53
2022-09-03T04:21:30.572Z,33.79
2022-09-03T04:23:32.468Z,33.89
2022-09-03T04:25:34.006Z,33.64
2022-09-03T04:27:36.938Z,33.54
2022-09-03T04:29:38.673Z,33.80
2022-09-03T04:31:41.116Z,33.84
2022-09-03T04:33:43.303Z,33.60
2022-09-03T04:35:45.001Z,33.62
2022-09-03T04:37:46.815Z,33.90
2022-09-03T04:39:48.468Z,33.92
2022-09-03T04:41:50.107Z,34.17
2022-09-03T04:43:53.965Z,33.89
2022-09-03T04:45:59.237Z,34.16
2022-09-03T04:48:01.407Z,34.28
2022-09-03T04:50:03.175Z,34.28
2022-09-03T04:52:04.829Z,34.35
2022-09-03T04:54:06.442Z,35.55
2022-09-03T04:56:14.857Z,35.92
2022-09-03T04:58:16.717Z,37.72
2022-09-03T05:00:19.773Z,37.04
2022-09-03T05:02:21.360Z,37.58
2022-09-03T05:04:22.950Z,37.99
2022-09-03T05:06:24.795Z,37.90
2022-09-03T05:08:26.311Z,39.26
2022-09-03T05:10:28.277Z,39.90
2022-09-03T05:12:29.805Z,39.65
2022-09-03T05:14:31.385Z,38.77
2022-09-03T05:16:34.331Z,38.71
2022-09-03T05:18:37.076Z,40.67
2022-09-03T05:20:38.573Z,42.93
2022-09-03T05:22:40.144Z,43.49
2022-09-03T05:24:41.656Z,44.05
2022-09-03T05:26:43.152Z,45.46
2022-09-03T05:28:45.608Z,45.68
2022-09-03T05:30:47.154Z,45.92
2022-09-03T05:32:50.153Z,46.68
2022-09-03T05:34:51.860Z,46.63
2022-09-03T05:36:53.434Z,46.39
2022-09-03T05:38:54.977Z,46.71
2022-09-03T05:40:58.520Z,45.53
2022-09-03T05:43:00.597Z,47.43
2022-09-03T05:45:02.851Z,47.77
2022-09-03T05:47:04.459Z,47.78
2022-09-03T05:49:07.940Z,48.62
2022-09-03T05:51:11.020Z,47.59
2022-09-03T05:53:12.589Z,47.33
2022-09-03T05:55:16.108Z,48.66
2022-09-03T05:57:21.129Z,48.11
2022-09-03T05:59:22.707Z,49.38
2022-09-03T06:01:26.281Z,50.52
2022-09-03T06:03:28.206Z,48.02
2022-09-03T06:05:31.298Z,48.18
2022-09-03T06:07:32.821Z,48.61
2022-09-03T06:09:34.406Z,49.93
2022-09-03T06:11:39.873Z,49.43
2022-09-03T06:13:41.757Z,48.42
2022-09-03T06:15:43.290Z,48.91
2022-09-03T06:17:44.834Z,47.23
2022-09-03T06:19:46.349Z,48.65
2022-09-03T06:21:49.386Z,48.63
2022-09-03T06:23:52.105Z,48.61
2022-09-03T06:26:04.932Z,47.87
2022-09-03T06:28:06.935Z,46.55
2022-09-03T06:30:09.675Z,46.39
2022-09-03T06:32:11.309Z,46.87
2022-09-03T06:34:12.859Z,47.12
2022-09-03T06:36:16.277Z,46.71
2022-09-03T06:38:19.259Z,46.78
2022-09-03T06:40:20.838Z,47.07
2022-09-03T06:42:22.467Z,47.67
2022-09-03T06:44:24.019Z,49.50
2022-09-03T06:46:25.583Z,50.11
2022-09-03T06:48:28.372Z,51.01
2022-09-03T06:50:34.417Z,52.12
2022-09-03T06:52:36.266Z,52.56
2022-09-03T06:54:39.221Z,47.94
2022-09-03T06:56:41.607Z,47.89
2022-09-03T06:58:45.521Z,50.19
2022-09-03T07:00:47.463Z,48.87
2022-09-03T07:02:49.029Z,48.97
2022-09-03T07:04:50.574Z,51.42
2022-09-03T07:06:52.185Z,51.16
2022-09-03T07:08:54.047Z,49.19
2022-09-03T07:10:56.955Z,52.94
2022-09-03T07:12:58.615Z,49.69
2022-09-03T07:15:00.186Z,49.73
2022-09-03T07:17:01.916Z,50.92
2022-09-03T07:19:04.137Z,53.44
2022-09-03T07:21:07.881Z,53.04
2022-09-03T07:23:09.407Z,51.99
2022-09-03T07:25:10.937Z,51.77
2022-09-03T07:27:15.134Z,51.67
2022-09-03T07:29:16.979Z,51.63
2022-09-03T07:31:24.628Z,53.82
2022-09-03T07:33:26.194Z,54.77
2022-09-03T07:35:27.742Z,55.25
2022-09-03T07:37:31.734Z,57.48
2022-09-03T07:39:33.318Z,57.13
2022-09-03T07:41:35.107Z,57.51
2022-09-03T07:43:40.935Z,58.81
2022-09-03T07:45:42.484Z,57.92
2022-09-03T07:47:48.088Z,58.28
2022-09-03T07:49:51.976Z,58.52
2022-09-03T07:51:53.522Z,57.36
2022-09-03T07:53:56.646Z,56.94
2022-09-03T07:56:02.219Z,57.47
2022-09-03T07:58:03.888Z,59.26
2022-09-03T08:00:08.476Z,57.38
2022-09-03T08:02:10.184Z,57.35
2022-09-03T08:04:11.870Z,58.49
2022-09-03T08:06:15.026Z,58.21
2022-09-03T08:08:16.665Z,57.19
2022-09-03T08:10:18.307Z,58.46
2022-09-03T08:12:19.845Z,59.06
2022-09-03T08:14:21.638Z,59.40
2022-09-03T08:16:24.621Z,58.87
2022-09-03T08:18:26.264Z,59.22
2022-09-03T08:20:28.423Z,59.95
2022-09-03T08:22:31.899Z,60.97
2022-09-03T08:24:33.544Z,60.80
2022-09-03T08:26:36.884Z,60.32
2022-09-03T08:28:39.011Z,59.69
2022-09-03T08:30:40.694Z,59.77
2022-09-03T08:32:43.647Z,60.12
2022-09-03T08:34:45.242Z,59.30
2022-09-03T08:36:47.487Z,61.15
2022-09-03T08:38:49.967Z,58.94
2022-09-03T08:40:51.502Z,58.40
2022-09-03T08:43:09.431Z,59.02
2022-09-03T08:45:15.845Z,61.18
2022-09-03T08:47:23.255Z,60.92
2022-09-03T08:49:32.535Z,60.92
2022-09-03T08:51:34.334Z,57.66
2022-09-03T08:53:44.509Z,57.96
2022-09-03T08:55:51.579Z,58.64
2022-09-03T08:58:01.749Z,56.82
2022-09-03T09:00:04.891Z,59.30
2022-09-03T09:02:22.661Z,60.94
2022-09-03T09:04:38.738Z,60.52
2022-09-03T09:06:46.887Z,60.10
2022-09-03T09:09:03.495Z,61.78
2022-09-03T09:11:15.921Z,61.42
2022-09-03T09:13:27.857Z,61.25
2022-09-03T09:15:39.837Z,61.52
2022-09-03T09:17:56.856Z,61.39
2022-09-03T09:20:09.714Z,60.83
2022-09-03T09:22:24.760Z,61.13
2022-09-03T09:24:35.436Z,61.82
2022-09-03T09:26:40.332Z,61.63
2022-09-03T09:28:43.416Z,61.61
2022-09-03T09:30:46.897Z,60.97
2022-09-03T09:32:48.995Z,61.83
2022-09-03T09:34:52.609Z,60.71
2022-09-03T09:36:56.203Z,59.51
2022-09-03T09:39:08.597Z,59.62
2022-09-03T09:41:14.382Z,59.86
2022-09-03T09:43:17.999Z,60.45
2022-09-03T09:45:19.706Z,58.91
2022-09-03T09:47:24.683Z,59.56
2022-09-03T09:49:31.766Z,62.30
2022-09-03T09:51:33.358Z,60.47
2022-09-03T09:53:36.511Z,59.59
2022-09-03T09:55:59.669Z,59.15
2022-09-03T09:58:16.211Z,59.60
2022-09-03T10:00:18.763Z,59.41
2022-09-03T10:02:24.791Z,58.27
2022-09-03T10:04:33.445Z,58.19
2022-09-03T10:06:35.862Z,59.55
2022-09-03T10:08:38.764Z,59.92
2022-09-03T10:10:45.779Z,58.81
2022-09-03T10:12:58.931Z,59.29
2022-09-03T10:15:10.071Z,58.42
2022-09-03T10:17:21.645Z,57.58
2022-09-03T10:19:40.985Z,60.23
2022-09-03T10:21:49.316Z,58.99
2022-09-03T10:24:01.705Z,57.75
2022-09-03T10:26:09.995Z,57.12
2022-09-03T10:28:13.408Z,56.72
2022-09-03T10:30:15.407Z,56.66
2022-09-03T10:35:23.200Z,57.03
2022-09-03T10:37:34.295Z,57.69
2022-09-03T10:39:52.613Z,55.98
2022-09-03T10:42:08.994Z,55.93
2022-09-03T10:44:35.693Z,57.84
2022-09-03T10:46:46.432Z,59.11
2022-09-03T10:49:10.597Z,58.13
2022-09-03T10:51:18.634Z,55.89
2022-09-03T10:53:41.431Z,55.24
2022-09-03T10:55:50.460Z,55.76
2022-09-03T10:58:07.420Z,56.42
2022-09-03T11:00:11.840Z,55.84
2022-09-03T11:02:29.226Z,56.47
2022-09-03T11:04:41.877Z,55.92
2022-09-03T11:06:50.318Z,55.06
2022-09-03T11:09:00.953Z,54.89
2022-09-03T11:11:14.113Z,54.19
2022-09-03T11:13:24.866Z,51.90
2022-09-03T11:15:31.223Z,50.96
2022-09-03T11:17:39.894Z,50.93
2022-09-03T11:19:47.583Z,52.81
2022-09-03T11:21:51.981Z,52.40
2022-09-03T11:24:04.097Z,50.99
2022-09-03T11:26:10.399Z,51.63
2022-09-03T11:28:22.170Z,51.70
2022-09-03T11:30:28.078Z,51.76
2022-09-03T11:32:42.533Z,53.01
2022-09-03T11:34:49.745Z,52.56
2022-09-03T11:36:51.450Z,53.02
2022-09-03T11:38:53.169Z,51.74
2022-09-03T11:40:59.584Z,52.71
2022-09-03T11:43:14.367Z,52.74
2022-09-03T11:45:34.092Z,53.22
2022-09-03T11:47:40.380Z,52.37
2022-09-03T11:49:46.298Z,50.20
2022-09-03T11:51:58.367Z,51.95
2022-09-03T11:54:04.275Z,52.14
2022-09-03T11:56:19.315Z,49.96
2022-09-03T11:58:25.207Z,48.77
2022-09-03T12:00:26.791Z,48.67
2022-09-03T12:02:31.774Z,48.06
2022-09-03T12:04:42.392Z,45.94
2022-09-03T12:07:26.700Z,45.82
2022-09-03T12:09:45.393Z,43.86
2022-09-03T12:11:57.697Z,44.13
2022-09-03T12:14:13.606Z,45.20
2022-09-03T12:16:29.675Z,41.01
2022-09-03T12:18:34.644Z,41.03
2022-09-03T12:20:36.343Z,38.93
2022-09-03T12:22:38.181Z,38.74
2022-09-03T12:24:47.350Z,37.20
2022-09-03T12:26:49.350Z,34.22
2022-09-03T12:28:53.121Z,33.70
2022-09-03T12:31:06.822Z,32.78
2022-09-03T12:33:09.323Z,36.86
2022-09-03T12:35:13.283Z,35.99
2022-09-03T12:38:04.282Z,36.32
2022-09-03T12:40:08.307Z,35.80
2022-09-03T12:42:16.009Z,37.61
2022-09-03T12:44:24.895Z,37.53
2022-09-03T12:46:33.690Z,38.44
2022-09-03T12:48:35.846Z,38.34
2022-09-03T12:50:42.562Z,39.04
2022-09-03T12:52:53.961Z,40.02
2022-09-03T12:55:01.059Z,39.84
2022-09-03T12:57:04.133Z,39.89
2022-09-03T12:59:10.718Z,41.03
2022-09-03T13:01:18.480Z,40.35
2022-09-03T13:03:27.750Z,40.85
2022-09-03T13:05:37.105Z,41.68
2022-09-03T13:07:38.978Z,42.38
2022-09-03T13:09:46.657Z,42.10
2022-09-03T13:11:48.494Z,43.64
2022-09-03T13:13:55.610Z,42.04
2022-09-03T13:16:06.755Z,42.24
2022-09-03T13:18:20.485Z,43.59
2022-09-03T13:20:33.653Z,44.69
2022-09-03T13:22:44.418Z,43.71
2022-09-03T13:25:02.914Z,44.50
2022-09-03T13:27:14.150Z,44.15
2022-09-03T13:29:30.819Z,44.20
2022-09-03T13:31:36.847Z,44.40
2022-09-03T13:33:41.968Z,44.34
2022-09-03T13:35:49.599Z,44.09
2022-09-03T13:37:56.870Z,43.52
2022-09-03T13:40:03.274Z,44.24
2022-09-03T13:42:13.212Z,44.90
2022-09-03T13:44:20.294Z,44.66
2022-09-03T13:46:31.874Z,45.33
2022-09-03T13:48:38.954Z,45.69
2022-09-03T13:50:47.213Z,44.90
2022-09-03T13:52:53.382Z,45.27
2022-09-03T13:55:00.032Z,45.56
2022-09-03T13:57:05.008Z,44.77
2022-09-03T13:59:16.512Z,45.29
2022-09-03T14:01:27.248Z,46.24
2022-09-03T14:03:32.592Z,46.12
2022-09-03T14:05:55.041Z,46.25
2022-09-03T14:08:15.297Z,45.60
2022-09-03T14:10:23.517Z,45.78
2022-09-03T14:12:35.811Z,45.16
2022-09-03T14:14:45.622Z,45.67
2022-09-03T14:16:54.656Z,44.89
2022-09-03T14:19:00.445Z,45.61
2022-09-03T14:21:05.166Z,44.62
2022-09-03T14:23:29.135Z,44.76
2022-09-03T14:25:31.431Z,45.44
2022-09-03T14:27:33.361Z,46.74
2022-09-03T14:29:38.905Z,46.10
2022-09-03T14:32:15.301Z,46.21
2022-09-03T14:34:25.687Z,47.27
2022-09-03T14:36:39.877Z,47.77
2022-09-03T14:39:20.931Z,47.95
2022-09-03T14:41:44.318Z,49.56
2022-09-03T14:44:20.966Z,48.05
2022-09-03T14:46:38.224Z,48.20
2022-09-03T14:49:09.513Z,47.69
2022-09-03T14:51:31.361Z,47.23
2022-09-03T14:53:50.854Z,48.47
2022-09-03T14:56:08.380Z,47.88
2022-09-03T14:58:23.092Z,48.55
2022-09-03T15:00:33.836Z,48.75
2022-09-03T15:03:03.357Z,47.13
2022-09-03T15:05:14.826Z,48.21
2022-09-03T15:07:25.462Z,47.63
2022-09-03T15:09:34.083Z,48.18
2022-09-03T15:11:49.476Z,49.02
2022-09-03T15:14:01.086Z,48.46
2022-09-03T15:16:20.960Z,48.51
2022-09-03T15:18:30.561Z,50.28
2022-09-03T15:20:41.013Z,48.46
2022-09-03T15:23:03.143Z,50.43
2022-09-03T15:25:19.175Z,49.68
2022-09-03T15:27:39.196Z,49.75
2022-09-03T15:29:49.243Z,50.75
2022-09-03T15:32:00.450Z,49.87
2022-09-03T15:34:19.777Z,49.76
2022-09-03T15:36:24.007Z,49.33
2022-09-03T15:38:37.642Z,49.64
2022-09-03T15:40:49.096Z,50.12
2022-09-03T15:42:58.391Z,50.74
2022-09-03T15:45:08.669Z,49.95
2022-09-03T15:47:14.666Z,50.02
2022-09-03T15:49:27.194Z,50.99
2022-09-03T15:51:31.130Z,51.37
2022-09-03T15:53:36.620Z,50.41
2022-09-03T15:55:41.148Z,50.81
2022-09-03T15:57:51.719Z,50.90
2022-09-03T16:00:01.882Z,53.03
2022-09-03T16:02:07.333Z,53.95
2022-09-03T16:04:22.353Z,53.57
2022-09-03T16:06:31.827Z,52.00
2022-09-03T16:08:42.056Z,53.98
2022-09-03T16:10:53.185Z,53.66
2022-09-03T16:13:02.904Z,53.51
2022-09-03T16:15:10.594Z,55.20
2022-09-03T16:17:22.734Z,56.12
2022-09-03T16:19:29.956Z,56.19
2022-09-03T16:21:39.040Z,56.26
2022-09-03T16:23:49.087Z,56.84
2022-09-03T16:25:55.876Z,56.61
2022-09-03T16:28:11.436Z,59.09
2022-09-03T16:30:30.867Z,54.62
2022-09-03T16:32:46.769Z,51.84
2022-09-03T16:35:04.249Z,52.38
2022-09-03T16:37:15.723Z,53.39
2022-09-03T16:39:28.483Z,53.08
2022-09-03T16:41:35.608Z,54.50
2022-09-03T16:43:45.372Z,55.75
2022-09-03T16:45:59.674Z,56.04
2022-09-03T16:48:15.290Z,56.90
2022-09-03T16:50:26.819Z,58.46
2022-09-03T16:52:40.637Z,57.41
2022-09-03T16:54:56.072Z,58.11
2022-09-03T16:57:08.010Z,57.39
2022-09-03T16:59:32.816Z,56.38
2022-09-03T17:01:55.470Z,58.58
2022-09-03T17:04:29.860Z,58.56
2022-09-03T17:06:41.676Z,57.84
2022-09-03T17:08:53.943Z,57.10
2022-09-03T17:11:09.873Z,59.26
2022-09-03T17:13:46.541Z,58.34
2022-09-03T17:15:53.084Z,58.16
2022-09-03T17:18:25.431Z,56.76
2022-09-03T17:20:45.943Z,57.26
2022-09-03T17:23:06.725Z,57.08
2022-09-03T17:25:20.744Z,56.67
2022-09-03T17:27:34.937Z,55.65
2022-09-03T17:29:52.627Z,55.99
2022-09-03T17:32:06.898Z,55.73
2022-09-03T17:34:21.300Z,55.88
2022-09-03T17:36:24.755Z,56.75
2022-09-03T17:38:52.981Z,55.68
2022-09-03T17:41:07.307Z,56.17
2022-09-03T17:43:19.028Z,56.45
2022-09-03T17:45:36.538Z,56.53
2022-09-03T17:48:06.848Z,56.57
2022-09-03T17:50:16.866Z,56.39
2022-09-03T17:52:25.428Z,56.72
2022-09-03T17:54:38.091Z,56.40
2022-09-03T17:56:48.285Z,56.25
2022-09-03T17:58:55.902Z,56.94
2022-09-03T18:01:06.443Z,56.19
2022-09-03T18:03:16.438Z,55.52
2022-09-03T18:05:22.506Z,56.38
2022-09-03T18:07:29.981Z,56.91
2022-09-03T18:09:38.183Z,56.26
2022-09-03T18:11:41.707Z,56.42
2022-09-03T18:13:48.898Z,56.34
2022-09-03T18:15:54.932Z,56.52
2022-09-03T18:18:03.118Z,56.90
2022-09-03T18:20:08.466Z,57.30
2022-09-03T18:22:11.471Z,55.16
2022-09-03T18:24:29.652Z,55.46
2022-09-03T18:26:37.418Z,55.38
2022-09-03T18:28:45.402Z,57.03
2022-09-03T18:30:47.106Z,57.54
2022-09-03T18:32:48.882Z,57.47
2022-09-03T18:34:50.453Z,56.52
2022-09-03T18:36:52.196Z,56.52
2022-09-03T18:39:11.906Z,56.25
2022-09-03T18:41:43.875Z,57.24
2022-09-03T18:43:56.100Z,56.45
2022-09-03T18:48:32.502Z,56.90
2022-09-03T18:50:44.517Z,57.39
2022-09-03T18:52:54.914Z,57.48
2022-09-03T18:55:08.976Z,58.64
2022-09-03T18:57:20.706Z,58.45
2022-09-03T18:59:41.555Z,58.89
2022-09-03T19:01:43.622Z,57.44
2022-09-03T19:03:59.104Z,57.93
2022-09-03T19:06:12.033Z,57.58
2022-09-03T19:08:21.436Z,57.66
2022-09-03T19:10:28.454Z,57.81
2022-09-03T19:12:43.442Z,57.90
2022-09-03T19:14:57.008Z,57.76
2022-09-03T19:17:06.079Z,57.94
2022-09-03T19:19:26.713Z,58.61
2022-09-03T19:21:33.974Z,57.73
2022-09-03T19:23:35.585Z,58.40
2022-09-03T19:25:38.554Z,58.90
2022-09-03T19:27:58.640Z,58.95
2022-09-03T19:30:06.746Z,58.67
2022-09-03T19:32:19.030Z,58.94
2022-09-03T19:34:59.501Z,58.67
2022-09-03T19:37:08.316Z,59.14
2022-09-03T19:39:20.810Z,58.94
2022-09-03T19:41:30.008Z,59.14
2022-09-03T19:43:42.687Z,58.89
2022-09-03T19:46:00.223Z,59.23
2022-09-03T19:48:13.150Z,59.10
2022-09-03T19:50:21.166Z,59.58
2022-09-03T19:52:32.366Z,59.63
2022-09-03T19:54:36.016Z,59.30
2022-09-03T19:56:41.351Z,59.39
2022-09-03T19:58:49.321Z,59.33
2022-09-03T20:00:51.214Z,59.42
2022-09-03T20:02:52.831Z,59.19
2022-09-03T20:05:00.510Z,59.32
2022-09-03T20:07:06.099Z,59.13
2022-09-03T20:09:09.544Z,59.57
2022-09-03T20:11:18.040Z,58.99
2022-09-03T20:13:21.068Z,59.71
2022-09-03T20:15:29.291Z,59.42
2022-09-03T20:17:38.361Z,59.05
2022-09-03T20:19:54.934Z,59.66
2022-09-03T20:22:02.696Z,59.00
2022-09-03T20:24:19.612Z,59.71
2022-09-03T20:26:35.778Z,59.37
2022-09-03T20:29:02.142Z,58.77
2022-09-03T20:31:11.797Z,58.22
2022-09-03T20:33:34.472Z,58.29
2022-09-03T20:35:49.051Z,58.45
2022-09-03T20:37:59.480Z,58.28
2022-09-03T20:40:12.110Z,58.87
2022-09-03T20:42:33.460Z,58.07
2022-09-03T20:45:00.809Z,57.99
2022-09-03T20:47:15.497Z,58.11
2022-09-03T20:49:28.774Z,58.29
2022-09-03T20:51:36.286Z,58.23
2022-09-03T20:54:02.273Z,57.93
2022-09-03T20:56:10.974Z,57.78
2022-09-03T20:58:19.708Z,57.62
2022-09-03T21:00:23.290Z,57.69
2022-09-03T21:02:37.051Z,58.61
2022-09-03T21:04:51.444Z,57.68
2022-09-03T21:06:59.913Z,58.13
2022-09-03T21:09:14.755Z,57.83
2022-09-03T21:11:29.624Z,57.74
2022-09-03T21:13:41.776Z,57.91
2022-09-03T21:15:57.873Z,57.82
2022-09-03T21:18:06.486Z,57.69
2022-09-03T21:20:20.944Z,57.50
2022-09-03T21:22:31.320Z,57.76
2022-09-03T21:24:37.460Z,57.85
2022-09-03T21:26:42.244Z,57.21
2022-09-03T21:28:50.005Z,57.17
2022-09-03T21:30:59.005Z,57.53
2022-09-03T21:33:06.530Z,57.71
2022-09-03T21:35:16.834Z,57.74
2022-09-03T21:37:18.996Z,57.54
2022-09-03T21:39:26.067Z,56.97
2022-09-03T21:41:34.188Z,57.48
2022-09-03T21:43:45.276Z,57.07
2022-09-03T21:45:54.530Z,57.01
2022-09-03T21:48:03.002Z,57.52
2022-09-03T21:50:16.836Z,57.73
2022-09-03T21:52:23.224Z,57.69
2022-09-03T21:54:28.511Z,57.56
2022-09-03T21:56:51.125Z,57.53
2022-09-03T21:59:08.863Z,57.26
2022-09-03T22:01:15.660Z,57.49
2022-09-03T22:03:18.613Z,57.86
2022-09-03T22:05:20.447Z,57.50
2022-09-03T22:07:32.137Z,57.11
2022-09-03T22:09:41.728Z,57.08
2022-09-03T22:11:52.407Z,56.75
2022-09-03T22:14:01.925Z,56.85
2022-09-03T22:16:11.260Z,56.96
2022-09-03T22:18:19.237Z,57.10
2022-09-03T22:20:23.591Z,58.23
2022-09-03T22:22:33.547Z,57.01
2022-09-03T22:24:42.747Z,57.10
2022-09-03T22:26:52.626Z,57.52
2022-09-03T22:29:03.152Z,57.42
2022-09-03T22:31:17.509Z,56.90
2022-09-03T22:33:28.033Z,57.23
2022-09-03T22:35:50.549Z,56.62
2022-09-03T22:38:04.443Z,56.91
2022-09-03T22:40:19.113Z,56.13
2022-09-03T22:42:38.787Z,56.84
2022-09-03T22:45:06.715Z,57.33
2022-09-03T22:47:18.582Z,57.15
2022-09-03T22:49:31.616Z,55.86
2022-09-03T22:51:46.168Z,56.50
2022-09-03T22:54:01.405Z,56.77
2022-09-03T22:56:07.252Z,56.23
2022-09-03T22:58:16.350Z,56.17
2022-09-03T23:00:21.433Z,57.11
2022-09-03T23:02:26.587Z,56.85
2022-09-03T23:04:31.178Z,56.33
2022-09-03T23:06:36.151Z,56.01
2022-09-03T23:08:45.951Z,55.95
2022-09-03T23:11:00.334Z,56.44
2022-09-03T23:13:07.953Z,56.18
2022-09-03T23:15:13.046Z,57.23
2022-09-03T23:17:19.579Z,56.24
2022-09-03T23:19:27.170Z,56.00
2022-09-03T23:21:36.752Z,56.74
2022-09-03T23:23:45.263Z,57.26
2022-09-03T23:25:51.246Z,56.22
2022-09-03T23:28:00.102Z,56.67
2022-09-03T23:30:01.928Z,57.04
2022-09-03T23:32:03.587Z,57.08
2022-09-03T23:34:06.347Z,57.03
2022-09-03T23:36:26.916Z,56.43
2022-09-03T23:38:52.790Z,55.60
2022-09-03T23:40:57.743Z,55.93
2022-09-03T23:43:14.116Z,56.35
2022-09-03T23:45:25.906Z,56.31
2022-09-03T23:47:37.825Z,56.52
2022-09-03T23:49:48.781Z,57.16
2022-09-03T23:52:13.610Z,57.38
2022-09-03T23:54:22.968Z,57.29
2022-09-03T23:56:49.346Z,56.67
2022-09-03T23:59:02.924Z,56.52
